首页
METAR-TAF:

METAR-TAF

机场 :

雷焦卡拉布里亚, 意大利

纬度: 38-04N, 经度: 015-39E, 海拔: 11米

当前天气观测

该预报发布于1小时和27分钟前的15:50 UTC
风速8节,风向北转东北,在西北东转东北之间变化
温度 18°C
湿度 73%
气压 1003 hPa
能见度10公里或以上
少量云层高于1500英尺, 积雨云.
散云层高于6000英尺
雨, 附近有雷暴

METAR: LICR 051550Z 03008KT 310V070 9999 RA VCTS FEW015CB SCT060 18/13 Q1003 RMK VIS MIN 9999

时间: 19:17 (17:17 UTC)

预报

该预报发布于6小时和17分钟前的11:00 UTC
预报有效从05日的 12点(UTC)到 06日的 12点(UTC)
风速15节,风向
能见度10公里或以上
散云层高于3000英尺
短暂存在
从 05日的 12点(UTC)到 05日的 18点(UTC)
阵雨

TAF: LICR 051100Z 0512/0612 35015KT 9999 SCT030 TEMPO 0512/0518 SHRA

超过4000个机场的气象观测和天气预报(METAR&TAF报告)。

可查询的气象台以黄色和红色小点在地图上表示。

将鼠标移到小点上方,可查看气象台名称。

然后点击查看天气观测和预报。

如需切换地图:点击带黑十字的绿色按钮放大地图;点击带横线的绿色按钮缩小地图;或者点击绿色箭头查看邻近地区的地图。


METAR-TAF: